createdAt,value
2022-11-03T00:00:12.741Z,93539.72
2022-11-03T00:01:53.404Z,93539.56
2022-11-03T00:03:25.048Z,93541.16
2022-11-03T00:04:56.559Z,93543.69
2022-11-03T00:06:28.167Z,93536.88
2022-11-03T00:08:01.742Z,93538.13
2022-11-03T00:09:33.618Z,93541.94
2022-11-03T00:11:09.489Z,93542.88
2022-11-03T00:12:41.039Z,93539.56
2022-11-03T00:14:13.003Z,93540.34
2022-11-03T00:15:50.517Z,93544.97
2022-11-03T00:17:22.103Z,93546.38
2022-11-03T00:18:53.702Z,93538.59
2022-11-03T00:20:25.391Z,93539.69
2022-11-03T00:21:59.488Z,93545.41
2022-11-03T00:23:33.787Z,93544.47
2022-11-03T00:25:05.584Z,93539.69
2022-11-03T00:26:37.683Z,93537.59
2022-11-03T00:28:09.356Z,93541.59
2022-11-03T00:29:41.018Z,93542.41
2022-11-03T00:31:13.872Z,93539.69
2022-11-03T00:32:45.533Z,93534.91
2022-11-03T00:34:17.144Z,93524.06
2022-11-03T00:35:48.678Z,93534.44
2022-11-03T00:37:20.205Z,93539.84
2022-11-03T00:38:51.860Z,93535.56
2022-11-03T00:40:23.379Z,93541.75
2022-11-03T00:41:55.008Z,93538.25
2022-11-03T00:43:26.882Z,93545.88
2022-11-03T00:44:58.489Z,93548.06
2022-11-03T00:46:30.754Z,93541.69
2022-11-03T00:48:21.081Z,93535.34
2022-11-03T00:49:52.590Z,93539.94
2022-11-03T00:51:24.986Z,93540.09
2022-11-03T00:52:56.537Z,93541.50
2022-11-03T00:54:28.048Z,93537.22
2022-11-03T00:55:59.727Z,93536.44
2022-11-03T00:57:31.219Z,93537.53
2022-11-03T00:59:03.927Z,93537.53
2022-11-03T01:00:35.463Z,93533.72
2022-11-03T01:02:07.036Z,93533.72
2022-11-03T01:03:39.294Z,93529.56
2022-11-03T01:05:29.564Z,93524.97
2022-11-03T01:07:01.250Z,93526.38
2022-11-03T01:08:34.179Z,93529.44
2022-11-03T01:10:07.637Z,93530.53
2022-11-03T01:11:45.226Z,93529.75
2022-11-03T01:13:16.711Z,93533.56
2022-11-03T01:14:49.468Z,93526.06
2022-11-03T01:16:21.170Z,93534.00
2022-11-03T01:17:52.948Z,93531.16
2022-11-03T01:19:25.452Z,93533.84
2022-11-03T01:20:57.500Z,93530.34
2022-11-03T01:22:29.132Z,93529.25
2022-11-03T01:24:01.918Z,93523.19
2022-11-03T01:25:35.468Z,93525.44
2022-11-03T01:27:08.206Z,93527.34
2022-11-03T01:28:40.670Z,93528.88
2022-11-03T01:30:12.327Z,93526.66
2022-11-03T01:31:43.972Z,93530.75
2022-11-03T01:33:15.585Z,93526.31
2022-11-03T01:34:47.590Z,93525.81
2022-11-03T01:36:19.519Z,93528.03
2022-11-03T01:37:51.504Z,93528.22
2022-11-03T01:39:23.124Z,93520.75
2022-11-03T01:40:54.707Z,93522.97
2022-11-03T01:42:26.238Z,93520.47
2022-11-03T01:44:09.758Z,93519.03
2022-11-03T01:45:41.247Z,93512.84
2022-11-03T01:47:19.644Z,93520.94
2022-11-03T01:49:01.200Z,93516.34
2022-11-03T01:50:32.734Z,93528.59
2022-11-03T01:52:09.763Z,93519.38
2022-11-03T01:53:42.920Z,93526.06
2022-11-03T01:55:16.366Z,93519.72
2022-11-03T01:56:48.002Z,93519.88
2022-11-03T01:58:20.910Z,93517.16
2022-11-03T01:59:52.437Z,93522.56
2022-11-03T02:01:24.399Z,93521.94
2022-11-03T02:02:56.138Z,93516.72
2022-11-03T02:04:29.445Z,93519.72
2022-11-03T02:06:01.560Z,93523.34
2022-11-03T02:07:59.101Z,93522.38
2022-11-03T02:09:30.757Z,93516.81
2022-11-03T02:11:22.198Z,93519.97
2022-11-03T02:12:54.036Z,93517.56
2022-11-03T02:14:25.570Z,93521.53
2022-11-03T02:15:58.169Z,93522.94
2022-11-03T02:17:29.873Z,93520.84
2022-11-03T02:19:01.867Z,93518.94
2022-11-03T02:20:33.482Z,93517.84
2022-11-03T02:22:14.404Z,93527.06
2022-11-03T02:23:47.999Z,93526.09
2022-11-03T02:25:34.519Z,93526.53
2022-11-03T02:27:06.064Z,93526.38
2022-11-03T02:28:37.560Z,93528.75
2022-11-03T02:30:09.882Z,93524.94
2022-11-03T02:31:42.485Z,93525.44
2022-11-03T02:33:32.614Z,93527.34
2022-11-03T02:35:33.604Z,93529.09
2022-11-03T02:37:15.770Z,93539.69
2022-11-03T02:38:54.034Z,93536.28
2022-11-03T02:40:30.137Z,93533.91
2022-11-03T02:42:01.719Z,93538.66
2022-11-03T02:43:33.270Z,93541.97
2022-11-03T02:45:05.808Z,93538.75
2022-11-03T02:46:37.598Z,93542.25
2022-11-03T02:48:09.152Z,93548.47
2022-11-03T02:49:47.327Z,93546.38
2022-11-03T02:51:18.923Z,93545.41
2022-11-03T02:52:52.666Z,93540.31
2022-11-03T02:54:26.761Z,93542.00
2022-11-03T02:56:06.273Z,93544.34
2022-11-03T02:57:39.583Z,93546.06
2022-11-03T02:59:14.959Z,93547.00
2022-11-03T03:00:58.737Z,93546.31
2022-11-03T03:02:33.468Z,93554.53
2022-11-03T03:04:06.662Z,93552.94
2022-11-03T03:05:38.446Z,93544.66
2022-11-03T03:07:26.908Z,93539.38
2022-11-03T03:09:01.650Z,93546.81
2022-11-03T03:10:34.894Z,93547.69
2022-11-03T03:12:06.591Z,93540.84
2022-11-03T03:13:38.176Z,93549.84
2022-11-03T03:15:09.885Z,93551.06
2022-11-03T03:16:47.352Z,93546.88
2022-11-03T03:18:26.520Z,93542.72
2022-11-03T03:20:02.102Z,93538.72
2022-11-03T03:21:35.192Z,93536.63
2022-11-03T03:23:19.643Z,93540.53
2022-11-03T03:24:56.985Z,93534.34
2022-11-03T03:26:29.857Z,93532.94
2022-11-03T03:28:03.139Z,93537.91
2022-11-03T03:29:39.519Z,93529.53
2022-11-03T03:31:12.044Z,93541.09
2022-11-03T03:32:44.919Z,93530.03
2022-11-03T03:34:33.788Z,93537.81
2022-11-03T03:36:06.842Z,93531.78
2022-11-03T03:37:39.536Z,93522.00
2022-11-03T03:39:11.227Z,93532.34
2022-11-03T03:40:43.138Z,93533.47
2022-11-03T03:42:14.916Z,93534.88
2022-11-03T03:43:46.758Z,93542.47
2022-11-03T03:45:18.766Z,93533.69
2022-11-03T03:46:56.105Z,93526.53
2022-11-03T03:48:27.689Z,93537.53
2022-11-03T03:49:59.286Z,93534.78
2022-11-03T03:51:30.809Z,93533.25
2022-11-03T03:53:03.133Z,93532.09
2022-11-03T03:54:34.703Z,93535.38
2022-11-03T03:56:06.361Z,93525.81
2022-11-03T03:57:37.916Z,93525.63
2022-11-03T03:59:09.503Z,93532.41
2022-11-03T04:00:41.436Z,93526.19
2022-11-03T04:02:13.153Z,93534.06
2022-11-03T04:03:44.787Z,93532.56
2022-11-03T04:05:16.458Z,93536.97
2022-11-03T04:06:48.285Z,93539.78
2022-11-03T04:08:19.892Z,93532.28
2022-11-03T04:09:51.481Z,93536.66
2022-11-03T04:11:41.751Z,93531.09
2022-11-03T04:13:31.880Z,93530.59
2022-11-03T04:15:22.329Z,93537.75
2022-11-03T04:17:12.608Z,93526.00
2022-11-03T04:19:02.953Z,93522.81
2022-11-03T04:20:53.380Z,93535.19
2022-11-03T04:22:26.844Z,93523.09
2022-11-03T04:24:00.421Z,93523.09
2022-11-03T04:25:32.470Z,93526.00
2022-11-03T04:27:30.205Z,93528.91
2022-11-03T04:29:01.875Z,93529.09
2022-11-03T04:30:33.627Z,93523.41
2022-11-03T04:32:11.178Z,93522.69
2022-11-03T04:33:42.976Z,93521.81
2022-11-03T04:35:15.520Z,93520.19
2022-11-03T04:36:50.178Z,93518.00
2022-11-03T04:38:22.934Z,93521.81
2022-11-03T04:40:02.734Z,93525.78
2022-11-03T04:41:34.759Z,93524.28
2022-11-03T04:43:10.540Z,93530.09
2022-11-03T04:44:42.166Z,93531.47
2022-11-03T04:46:16.499Z,93532.19
2022-11-03T04:47:48.196Z,93531.19
2022-11-03T04:49:22.906Z,93535.25
2022-11-03T04:50:57.582Z,93535.59
2022-11-03T04:52:29.260Z,93530.97
2022-11-03T04:54:07.590Z,93531.75
2022-11-03T04:55:42.026Z,93527.97
2022-11-03T04:57:14.455Z,93527.19
2022-11-03T04:58:48.383Z,93529.97
2022-11-03T05:00:20.142Z,93528.88
2022-11-03T05:01:51.863Z,93539.03
2022-11-03T05:03:24.421Z,93535.88
2022-11-03T05:04:56.117Z,93538.56
2022-11-03T05:06:28.188Z,93529.41
2022-11-03T05:07:59.723Z,93535.59
2022-11-03T05:09:31.255Z,93532.56
2022-11-03T05:11:05.558Z,93536.06
2022-11-03T05:12:37.259Z,93530.50
2022-11-03T05:14:20.871Z,93534.06
2022-11-03T05:15:53.282Z,93537.78
2022-11-03T05:17:28.150Z,93536.34
2022-11-03T05:18:59.762Z,93541.75
2022-11-03T05:20:36.011Z,93537.38
2022-11-03T05:22:08.875Z,93544.06
2022-11-03T05:23:41.160Z,93544.84
2022-11-03T05:25:31.155Z,93544.06
2022-11-03T05:27:02.741Z,93544.34
2022-11-03T05:28:35.823Z,93548.72
2022-11-03T05:30:12.973Z,93551.75
2022-11-03T05:31:44.494Z,93554.63
2022-11-03T05:33:18.883Z,93552.94
2022-11-03T05:34:51.418Z,93544.25
2022-11-03T05:36:23.945Z,93553.16
2022-11-03T05:37:55.510Z,93557.53
2022-11-03T05:39:27.135Z,93558.31
2022-11-03T05:40:59.163Z,93559.91
2022-11-03T05:42:34.383Z,93565.81
2022-11-03T05:44:27.069Z,93566.50
2022-11-03T05:45:58.984Z,93569.13
2022-11-03T05:47:35.240Z,93573.41
2022-11-03T05:49:06.920Z,93566.00
2022-11-03T05:50:39.214Z,93574.81
2022-11-03T05:52:14.193Z,93574.94
2022-11-03T05:53:46.699Z,93573.72
2022-11-03T05:55:22.983Z,93573.03
2022-11-03T05:56:55.814Z,93571.81
2022-11-03T05:58:37.172Z,93577.00
2022-11-03T06:00:20.090Z,93576.47
2022-11-03T06:01:52.047Z,93575.66
2022-11-03T06:03:25.314Z,93575.91
2022-11-03T06:04:56.921Z,93579.97
2022-11-03T06:06:32.210Z,93586.44
2022-11-03T06:08:06.890Z,93583.19
2022-11-03T06:09:38.630Z,93590.25
2022-11-03T06:11:10.512Z,93588.41
2022-11-03T06:12:42.675Z,93591.97
2022-11-03T06:14:24.683Z,93590.13
2022-11-03T06:16:02.057Z,93589.72
2022-11-03T06:17:34.249Z,93593.88
2022-11-03T06:19:20.542Z,93594.16
2022-11-03T06:20:53.440Z,93593.75
2022-11-03T06:22:27.538Z,93593.78
2022-11-03T06:23:59.094Z,93596.09
2022-11-03T06:25:31.898Z,93590.56
2022-11-03T06:27:04.112Z,93593.50
2022-11-03T06:28:37.201Z,93602.13
2022-11-03T06:30:28.810Z,93601.84
2022-11-03T06:32:00.407Z,93596.97
2022-11-03T06:33:35.176Z,93608.25
2022-11-03T06:35:08.819Z,93598.72
2022-11-03T06:36:40.492Z,93606.53
2022-11-03T06:38:14.086Z,93598.13
2022-11-03T06:39:46.012Z,93605.00
2022-11-03T06:41:20.435Z,93602.28
2022-11-03T06:42:52.644Z,93603.53
2022-11-03T06:44:25.470Z,93605.44
2022-11-03T06:46:00.224Z,93607.22
2022-11-03T06:47:32.746Z,93613.78
2022-11-03T06:49:19.842Z,93608.06
2022-11-03T06:50:51.596Z,93610.44
2022-11-03T06:52:30.120Z,93614.91
2022-11-03T06:54:01.791Z,93612.84
2022-11-03T06:55:33.528Z,93607.56
2022-11-03T06:57:07.818Z,93608.72
2022-11-03T06:58:39.504Z,93611.56
2022-11-03T07:00:32.848Z,93610.44
2022-11-03T07:02:05.956Z,93607.91
2022-11-03T07:03:38.205Z,93610.47
2022-11-03T07:05:16.576Z,93609.97
2022-11-03T07:06:53.593Z,93604.69
2022-11-03T07:08:30.292Z,93612.81
2022-11-03T07:10:01.869Z,93607.09
2022-11-03T07:11:52.980Z,93610.28
2022-11-03T07:13:25.369Z,93603.75
2022-11-03T07:14:59.100Z,93600.72
2022-11-03T07:16:34.373Z,93601.66
2022-11-03T07:18:13.417Z,93606.47
2022-11-03T07:19:45.363Z,93604.22
2022-11-03T07:21:23.503Z,93608.50
2022-11-03T07:22:55.144Z,93600.69
2022-11-03T07:24:30.244Z,93600.97
2022-11-03T07:26:01.765Z,93604.66
2022-11-03T07:27:35.533Z,93601.75
2022-11-03T07:29:09.130Z,93601.25
2022-11-03T07:30:40.686Z,93595.97
2022-11-03T07:32:32.464Z,93604.25
2022-11-03T07:34:05.728Z,93601.06
2022-11-03T07:36:08.499Z,93595.13
2022-11-03T07:37:29.633Z,93593.97
2022-11-03T07:39:01.330Z,93592.00
2022-11-03T07:40:34.206Z,93596.13
2022-11-03T07:42:34.757Z,93594.84
2022-11-03T07:44:08.602Z,93594.47
2022-11-03T07:45:41.912Z,93600.84
2022-11-03T07:47:18.636Z,93590.25
2022-11-03T07:48:57.100Z,93593.09
2022-11-03T07:50:28.747Z,93593.44
2022-11-03T07:52:00.462Z,93599.34
2022-11-03T07:53:36.044Z,93587.50
2022-11-03T07:55:09.300Z,93587.91
2022-11-03T07:56:45.392Z,93585.59
2022-11-03T07:58:28.446Z,93587.69
2022-11-03T08:00:11.025Z,93585.50
2022-11-03T08:01:43.850Z,93588.53
2022-11-03T08:03:22.048Z,93589.06
2022-11-03T08:04:53.700Z,93580.16
2022-11-03T08:06:25.356Z,93590.13
2022-11-03T08:07:56.978Z,93579.63
2022-11-03T08:09:28.512Z,93581.94
2022-11-03T08:11:02.064Z,93576.84
2022-11-03T08:12:33.827Z,93570.94
2022-11-03T08:14:05.344Z,93574.34
2022-11-03T08:15:37.029Z,93569.84
2022-11-03T08:17:08.698Z,93575.53
2022-11-03T08:18:40.370Z,93571.09
2022-11-03T08:20:12.072Z,93574.13
2022-11-03T08:21:43.791Z,93564.97
2022-11-03T08:23:31.225Z,93567.09
2022-11-03T08:25:03.211Z,93562.88
2022-11-03T08:26:35.059Z,93558.44
2022-11-03T08:28:06.663Z,93562.97
2022-11-03T08:29:38.194Z,93564.75
2022-11-03T08:31:13.044Z,93556.69
2022-11-03T08:32:45.001Z,93559.66
2022-11-03T08:34:16.702Z,93559.03
2022-11-03T08:35:48.347Z,93562.22
2022-11-03T08:37:20.002Z,93547.00
2022-11-03T08:38:51.801Z,93553.91
2022-11-03T08:40:23.405Z,93556.91
2022-11-03T08:41:54.943Z,93555.66
2022-11-03T08:43:26.671Z,93556.63
2022-11-03T08:44:59.326Z,93557.59
2022-11-03T08:46:30.906Z,93545.88
2022-11-03T08:48:02.549Z,93554.34
2022-11-03T08:49:34.225Z,93549.41
2022-11-03T08:51:06.867Z,93545.75
2022-11-03T08:52:38.542Z,93551.28
2022-11-03T08:54:10.259Z,93541.09
2022-11-03T08:55:41.854Z,93539.13
2022-11-03T08:57:13.492Z,93548.66
2022-11-03T08:58:45.322Z,93548.75
2022-11-03T09:00:17.278Z,93546.91
2022-11-03T09:01:49.000Z,93544.47
2022-11-03T09:03:21.021Z,93547.03
2022-11-03T09:04:52.604Z,93544.13
2022-11-03T09:06:24.732Z,93542.09
2022-11-03T09:11:40.323Z,93545.88
2022-11-03T09:13:11.852Z,93546.88
2022-11-03T09:14:43.439Z,93541.50
2022-11-03T09:16:15.035Z,93539.78
2022-11-03T09:17:46.590Z,93534.44
2022-11-03T09:19:18.254Z,93537.69
2022-11-03T09:20:50.392Z,93542.63
2022-11-03T09:22:23.168Z,93526.66
2022-11-03T09:23:54.981Z,93531.97
2022-11-03T09:25:26.607Z,93527.25
2022-11-03T09:27:02.121Z,93523.81
2022-11-03T09:28:34.178Z,93519.75
2022-11-03T09:30:13.376Z,93519.81
2022-11-03T09:31:45.556Z,93523.22
2022-11-03T09:33:17.229Z,93522.25
2022-11-03T09:34:48.835Z,93510.66
2022-11-03T09:36:20.557Z,93511.56
2022-11-03T09:37:52.957Z,93518.50
2022-11-03T09:39:25.052Z,93508.88
2022-11-03T09:40:57.057Z,93510.66
2022-11-03T09:42:28.595Z,93509.94
2022-11-03T09:44:00.609Z,93514.53
2022-11-03T09:45:32.830Z,93509.66
2022-11-03T09:47:04.699Z,93506.69
2022-11-03T09:48:36.395Z,93500.25
2022-11-03T09:50:11.779Z,93501.13
2022-11-03T09:51:43.627Z,93494.50
2022-11-03T09:53:15.273Z,93491.94
2022-11-03T09:54:46.984Z,93488.22
2022-11-03T09:56:19.764Z,93487.19
2022-11-03T09:58:01.009Z,93477.63
2022-11-03T09:59:32.506Z,93473.16
2022-11-03T10:01:04.395Z,93472.91
2022-11-03T10:02:36.265Z,93471.69
2022-11-03T10:04:08.689Z,93471.00
2022-11-03T10:05:40.387Z,93470.34
2022-11-03T10:07:11.908Z,93461.91
2022-11-03T10:08:43.673Z,93465.97
2022-11-03T10:10:15.766Z,93457.72
2022-11-03T10:11:47.354Z,93462.53
2022-11-03T10:13:23.800Z,93458.34
2022-11-03T10:14:55.481Z,93456.06
2022-11-03T10:16:27.070Z,93460.38
2022-11-03T10:17:58.646Z,93449.50
2022-11-03T10:19:32.476Z,93453.16
2022-11-03T10:21:05.489Z,93452.13
2022-11-03T10:22:40.878Z,93450.63
2022-11-03T10:24:13.028Z,93446.84
2022-11-03T10:25:44.993Z,93448.53
2022-11-03T10:27:23.178Z,93445.59
2022-11-03T10:29:11.861Z,93442.16
2022-11-03T10:31:10.192Z,93429.41
2022-11-03T10:32:41.666Z,93425.31
2022-11-03T10:34:32.063Z,93424.19
2022-11-03T10:36:15.907Z,93425.00
2022-11-03T10:37:47.426Z,93421.09
2022-11-03T10:39:29.009Z,93419.63
2022-11-03T10:41:11.129Z,93420.06
2022-11-03T10:42:43.035Z,93413.38
2022-11-03T10:44:14.711Z,93414.94
2022-11-03T10:45:46.405Z,93405.91
2022-11-03T10:47:24.425Z,93407.47
2022-11-03T10:50:42.874Z,93400.06
2022-11-03T10:52:20.724Z,93403.22
2022-11-03T10:53:52.382Z,93398.50
2022-11-03T10:55:25.986Z,93395.81
2022-11-03T10:56:58.390Z,93398.22
2022-11-03T10:58:30.375Z,93389.63
2022-11-03T11:00:02.372Z,93391.63
2022-11-03T11:01:34.095Z,93391.22
2022-11-03T11:03:06.480Z,93382.19
2022-11-03T11:04:38.757Z,93384.19
2022-11-03T11:06:27.006Z,93379.88
2022-11-03T11:07:58.931Z,93378.63
2022-11-03T11:09:30.562Z,93371.09
2022-11-03T11:11:06.469Z,93371.09
2022-11-03T11:12:38.306Z,93370.72
2022-11-03T11:14:28.442Z,93371.50
2022-11-03T11:16:00.608Z,93368.41
2022-11-03T11:17:38.423Z,93375.47
2022-11-03T11:19:10.135Z,93364.06
2022-11-03T11:20:41.697Z,93361.69
2022-11-03T11:22:14.132Z,93369.19
2022-11-03T11:23:46.165Z,93363.72
2022-11-03T11:25:18.099Z,93356.28
2022-11-03T11:26:50.931Z,93348.78
2022-11-03T11:28:22.685Z,93349.94
2022-11-03T11:29:54.341Z,93348.38
2022-11-03T11:31:32.611Z,93342.09
2022-11-03T11:33:14.243Z,93356.25
2022-11-03T11:34:45.818Z,93348.00
2022-11-03T11:36:24.247Z,93341.28
2022-11-03T11:37:55.943Z,93335.78
2022-11-03T11:39:27.828Z,93331.84
2022-11-03T11:40:59.534Z,93333.41
2022-11-03T11:42:32.607Z,93332.63
2022-11-03T11:44:26.778Z,93329.44
2022-11-03T11:46:17.438Z,93331.03
2022-11-03T11:47:49.594Z,93325.47
2022-11-03T11:49:21.265Z,93323.16
2022-11-03T11:50:52.847Z,93327.88
2022-11-03T11:52:24.469Z,93311.34
2022-11-03T11:54:16.515Z,93323.16
2022-11-03T11:55:49.276Z,93316.84
2022-11-03T11:57:21.652Z,93309.75
2022-11-03T11:58:56.541Z,93320.38
2022-11-03T12:00:29.576Z,93316.00
2022-11-03T12:02:01.232Z,93316.78
2022-11-03T12:03:34.429Z,93315.94
2022-11-03T12:05:07.946Z,93311.97
2022-11-03T12:06:40.174Z,93308.75
2022-11-03T12:08:18.825Z,93307.59
2022-11-03T12:09:50.649Z,93311.91
2022-11-03T12:11:45.451Z,93303.22
2022-11-03T12:13:38.104Z,93301.59
2022-11-03T12:15:28.286Z,93301.16
2022-11-03T12:17:19.874Z,93298.75
2022-11-03T12:18:51.538Z,93292.03
2022-11-03T12:20:36.207Z,93299.91
2022-11-03T12:22:29.758Z,93293.16
2022-11-03T12:24:01.383Z,93295.09
2022-11-03T12:25:33.732Z,93291.16
2022-11-03T12:27:21.299Z,93298.03
2022-11-03T12:28:53.433Z,93294.41
2022-11-03T12:30:24.972Z,93291.22
2022-11-03T12:31:56.606Z,93288.41
2022-11-03T12:33:28.498Z,93287.59
2022-11-03T12:35:00.365Z,93289.59
2022-11-03T12:36:32.434Z,93284.53
2022-11-03T12:38:04.293Z,93284.91
2022-11-03T12:39:35.943Z,93280.94
2022-11-03T12:41:22.781Z,93289.56
2022-11-03T12:42:54.327Z,93282.03
2022-11-03T12:44:26.068Z,93279.97
2022-11-03T12:45:57.757Z,93280.59
2022-11-03T12:47:29.342Z,93280.81
2022-11-03T12:49:00.962Z,93273.19
2022-11-03T12:50:32.722Z,93276.22
2022-11-03T12:52:08.300Z,93274.59
2022-11-03T12:53:41.065Z,93265.53
2022-11-03T12:55:12.878Z,93265.09
2022-11-03T12:56:44.750Z,93265.94
2022-11-03T12:58:16.266Z,93260.16
2022-11-03T12:59:47.956Z,93268.47
2022-11-03T13:01:19.788Z,93266.06
2022-11-03T13:02:52.031Z,93268.47
2022-11-03T13:04:23.738Z,93263.31
2022-11-03T13:05:56.347Z,93260.16
2022-11-03T13:07:33.479Z,93256.19
2022-11-03T13:09:06.321Z,93259.38
2022-11-03T13:10:38.020Z,93254.63
2022-11-03T13:12:30.384Z,93250.31
2022-11-03T13:14:02.014Z,93250.78
2022-11-03T13:15:33.608Z,93255.19
2022-11-03T13:17:05.298Z,93249.28
2022-11-03T13:18:36.993Z,93246.94
2022-11-03T13:21:45.648Z,93249.47
2022-11-03T13:23:20.336Z,93254.56
2022-11-03T13:24:54.617Z,93242.88
2022-11-03T13:26:26.154Z,93244.38
2022-11-03T13:27:57.994Z,93250.66
2022-11-03T13:29:34.140Z,93241.59
2022-11-03T13:31:07.076Z,93245.16
2022-11-03T13:32:38.687Z,93251.88
2022-11-03T13:34:10.336Z,93245.16
2022-11-03T13:35:42.162Z,93246.78
2022-11-03T13:37:13.842Z,93245.22
2022-11-03T13:38:45.549Z,93246.00
2022-11-03T13:42:09.210Z,93246.38
2022-11-03T13:43:40.761Z,93242.88
2022-11-03T13:45:13.115Z,93239.72
2022-11-03T13:46:44.663Z,93243.66
2022-11-03T13:49:21.519Z,93242.88
2022-11-03T13:50:15.203Z,93243.66
2022-11-03T13:51:47.141Z,93243.72
2022-11-03T14:00:47.318Z,93243.31
2022-11-03T14:06:02.117Z,93233.19
2022-11-03T14:07:33.721Z,93245.06
2022-11-03T14:09:05.298Z,93240.00
2022-11-03T14:10:36.856Z,93235.69
2022-11-03T14:12:27.128Z,93235.31
2022-11-03T14:13:58.738Z,93230.19
2022-11-03T14:15:30.439Z,93237.31
2022-11-03T14:17:02.110Z,93236.16
2022-11-03T14:18:33.891Z,93232.66
2022-11-03T14:20:05.742Z,93237.38
2022-11-03T14:21:42.913Z,93233.06
2022-11-03T14:23:14.480Z,93229.50
2022-11-03T14:24:46.075Z,93238.19
2022-11-03T14:26:33.013Z,93231.91
2022-11-03T14:28:09.373Z,93234.66
2022-11-03T14:29:41.200Z,93233.84
2022-11-03T14:31:12.921Z,93235.81
2022-11-03T14:32:44.592Z,93223.25
2022-11-03T14:34:16.229Z,93237.69
2022-11-03T14:35:49.330Z,93233.31
2022-11-03T14:37:20.976Z,93233.28
2022-11-03T14:38:52.701Z,93238.69
2022-11-03T14:40:42.819Z,93235.47
2022-11-03T14:42:17.379Z,93238.97
2022-11-03T14:43:49.570Z,93233.78
2022-11-03T14:45:21.666Z,93235.34
2022-11-03T14:46:53.874Z,93232.16
2022-11-03T14:48:25.398Z,93230.13
2022-11-03T14:49:57.003Z,93226.16
2022-11-03T14:51:29.162Z,93227.28
2022-11-03T14:53:00.717Z,93222.56
2022-11-03T14:54:32.301Z,93230.34
2022-11-03T14:56:04.187Z,93235.75
2022-11-03T14:57:35.823Z,93230.94
2022-11-03T14:59:07.514Z,93221.44
2022-11-03T15:00:39.083Z,93225.28
2022-11-03T15:02:10.737Z,93227.16
2022-11-03T15:03:42.647Z,93225.53
2022-11-03T15:05:34.252Z,93236.00
2022-11-03T15:07:06.596Z,93233.59
2022-11-03T15:08:38.350Z,93230.44
2022-11-03T15:10:10.051Z,93229.59
2022-11-03T15:11:42.023Z,93232.28
2022-11-03T15:13:13.771Z,93225.91
2022-11-03T15:14:45.516Z,93228.22
2022-11-03T15:16:17.117Z,93232.44
2022-11-03T15:17:48.765Z,93235.09
2022-11-03T15:19:20.357Z,93234.59
2022-11-03T15:20:52.091Z,93226.66
2022-11-03T15:26:08.024Z,93236.28
2022-11-03T15:27:39.566Z,93229.88
2022-11-03T15:29:11.175Z,93228.22
2022-11-03T15:30:42.749Z,93223.78
2022-11-03T15:32:15.419Z,93218.25
2022-11-03T15:33:46.995Z,93220.53
2022-11-03T15:35:18.703Z,93223.66
2022-11-03T15:36:50.643Z,93216.16
2022-11-03T15:38:22.240Z,93225.13
2022-11-03T15:39:58.736Z,93214.19
2022-11-03T15:41:31.700Z,93219.59
2022-11-03T15:43:03.402Z,93226.13
2022-11-03T15:44:35.273Z,93223.25
2022-11-03T15:46:06.864Z,93222.28
2022-11-03T15:47:39.426Z,93223.28
2022-11-03T15:49:11.323Z,93224.25
2022-11-03T15:50:43.188Z,93222.88
2022-11-03T15:52:14.773Z,93227.44
2022-11-03T15:53:46.902Z,93222.97
2022-11-03T15:55:19.395Z,93223.28
2022-11-03T15:56:50.955Z,93232.56
2022-11-03T15:58:22.595Z,93233.94
2022-11-03T15:59:57.737Z,93234.53
2022-11-03T16:01:29.905Z,93234.41
2022-11-03T16:03:02.252Z,93241.38
2022-11-03T16:04:34.144Z,93244.88
2022-11-03T16:06:05.871Z,93244.22
2022-11-03T16:07:37.435Z,93244.38
2022-11-03T16:09:09.696Z,93247.13
2022-11-03T16:10:48.056Z,93249.84
2022-11-03T16:12:24.378Z,93252.78
2022-11-03T16:13:56.315Z,93247.97
2022-11-03T16:15:27.834Z,93248.56
2022-11-03T16:16:59.942Z,93245.41
2022-11-03T16:18:31.533Z,93255.25
2022-11-03T16:20:03.145Z,93251.06
2022-11-03T16:21:35.281Z,93246.16
2022-11-03T16:23:06.876Z,93253.00
2022-11-03T16:24:38.632Z,93254.44
2022-11-03T16:26:10.232Z,93254.28
2022-11-03T16:27:42.100Z,93247.25
2022-11-03T16:29:13.662Z,93244.78
2022-11-03T16:30:49.826Z,93249.63
2022-11-03T16:32:25.679Z,93249.34
2022-11-03T16:33:58.566Z,93239.00
2022-11-03T16:35:30.431Z,93243.09
2022-11-03T16:37:02.023Z,93235.66
2022-11-03T16:38:33.672Z,93242.25
2022-11-03T16:40:06.007Z,93240.56
2022-11-03T16:41:37.899Z,93237.75
2022-11-03T16:43:09.732Z,93236.09
2022-11-03T16:44:41.370Z,93233.25
2022-11-03T16:46:13.796Z,93238.25
2022-11-03T16:47:46.170Z,93237.47
2022-11-03T16:49:18.072Z,93240.03
2022-11-03T16:50:52.853Z,93232.09
2022-11-03T16:52:27.387Z,93233.50
2022-11-03T16:54:00.028Z,93237.38
2022-11-03T16:55:31.961Z,93237.25
2022-11-03T16:57:03.897Z,93231.03
2022-11-03T16:58:35.967Z,93237.97
2022-11-03T17:00:09.122Z,93231.66
2022-11-03T17:01:41.516Z,93233.13
2022-11-03T17:03:13.894Z,93240.84
2022-11-03T17:04:46.012Z,93225.22
2022-11-03T17:06:18.125Z,93237.25
2022-11-03T17:07:53.620Z,93226.03
2022-11-03T17:09:27.191Z,93234.41
2022-11-03T17:10:59.336Z,93237.81
2022-11-03T17:12:31.405Z,93231.56
2022-11-03T17:14:04.201Z,93235.81
2022-11-03T17:15:36.211Z,93233.75
2022-11-03T17:17:08.435Z,93239.66
2022-11-03T17:18:40.571Z,93233.41
2022-11-03T17:20:13.310Z,93231.50
2022-11-03T17:21:45.382Z,93232.63
2022-11-03T17:23:17.109Z,93220.50
2022-11-03T17:24:48.975Z,93218.81
2022-11-03T17:26:22.218Z,93219.94
2022-11-03T17:27:57.783Z,93219.19
2022-11-03T17:29:32.329Z,93215.56
2022-11-03T17:31:05.005Z,93217.38
2022-11-03T17:32:37.642Z,93208.75
2022-11-03T17:34:12.508Z,93216.50
2022-11-03T17:35:45.906Z,93218.66
2022-11-03T17:37:17.677Z,93224.09
2022-11-03T17:38:49.858Z,93229.91
2022-11-03T17:40:22.147Z,93219.34
2022-11-03T17:41:54.182Z,93218.94
2022-11-03T17:43:28.551Z,93216.09
2022-11-03T17:45:01.180Z,93219.94
2022-11-03T17:46:32.990Z,93214.41
2022-11-03T17:48:06.180Z,93215.31
2022-11-03T17:49:38.262Z,93217.22
2022-11-03T17:51:12.435Z,93213.59
2022-11-03T17:52:46.283Z,93210.69
2022-11-03T17:54:18.377Z,93212.50
2022-11-03T17:56:08.914Z,93214.34
2022-11-03T17:57:42.326Z,93212.31
2022-11-03T17:59:14.841Z,93206.44
2022-11-03T18:00:46.418Z,93207.47
2022-11-03T18:02:19.575Z,93204.31
2022-11-03T18:03:52.310Z,93205.78
2022-11-03T18:05:24.113Z,93210.75
2022-11-03T18:06:55.775Z,93203.84
2022-11-03T18:08:28.022Z,93202.25
2022-11-03T18:09:59.803Z,93213.47
2022-11-03T18:11:50.062Z,93200.94
2022-11-03T18:13:23.181Z,93204.00
2022-11-03T18:14:55.337Z,93197.75
2022-11-03T18:16:26.820Z,93205.91
2022-11-03T18:17:58.465Z,93199.22
2022-11-03T18:19:30.262Z,93197.59
2022-11-03T18:21:02.065Z,93196.03
2022-11-03T18:22:33.822Z,93192.06
2022-11-03T18:24:18.380Z,93195.13
2022-11-03T18:25:50.722Z,93189.25
2022-11-03T18:27:25.379Z,93191.06
2022-11-03T18:28:57.847Z,93193.66
2022-11-03T18:30:30.919Z,93194.00
2022-11-03T18:32:03.978Z,93192.53
2022-11-03T18:33:36.258Z,93191.84
2022-11-03T18:35:10.795Z,93199.34
2022-11-03T18:36:42.510Z,93207.56
2022-11-03T18:38:14.873Z,93202.75
2022-11-03T18:39:46.654Z,93208.72
2022-11-03T18:41:39.291Z,93209.63
2022-11-03T18:43:14.529Z,93209.75
2022-11-03T18:44:46.854Z,93215.63
2022-11-03T18:46:18.565Z,93225.13
2022-11-03T18:47:50.247Z,93227.25
2022-11-03T18:49:22.614Z,93231.31
2022-11-03T18:50:55.741Z,93237.63